This is the latest recevied weather packets stored in our database for station/object VK3XEM-13. If no packets are shown the sender has not sent any weather packets the latest 10 day(s).
| Time | Temp. | Humidity | Pressure | Rain* | Wind** | Luminosity | Snow |
|---|---|---|---|---|---|---|---|
| 1777897034 | 13.89° C | 78% | 1011.7 hPa | 0 mm | - | 0 W/m² | - |
| 1777896134 | 14.44° C | 78% | 1011.7 hPa | 0 mm | - | 0 W/m² | - |
| 1777895234 | 14.44° C | 77% | 1011.4 hPa | 0 mm | - | 0 W/m² | - |
| 1777894335 | 14.44° C | 77% | 1011.4 hPa | 0 mm | - | 0 W/m² | - |
| 1777893434 | 14.44° C | 77% | 1010.7 hPa | 0 mm | - | 0 W/m² | - |
| 1777892534 | 14.44° C | 78% | 1010.7 hPa | 0 mm | - | 0 W/m² | - |
| 1777891634 | 14.44° C | 78% | 1010.7 hPa | 0 mm | - | 0 W/m² | - |
| 1777890734 | 13.89° C | 80% | 1010.4 hPa | 0 mm | - | 0 W/m² | - |
| 1777889835 | 13.33° C | 82% | 1010.4 hPa | 0 mm | - | 0 W/m² | - |
| 1777888934 | 13.89° C | 82% | 1010.4 hPa | 0 mm | - | 0 W/m² | - |
| 1777888034 | 13.89° C | 81% | 1010.4 hPa | 0 mm | - | 0 W/m² | - |
| 1777887134 | 13.89° C | 81% | 1010 hPa | 0 mm | - | 0 W/m² | - |
| 1777886234 | 13.89° C | 81% | 1009.7 hPa | 0 mm | - | 0 W/m² | - |
| 1777885334 | 13.33° C | 81% | 1010 hPa | 0.25 mm | - | 0 W/m² | - |
| 1777884434 | 13.33° C | 82% | 1009.3 hPa | 0.51 mm | - | 0 W/m² | - |
| 1777883535 | 13.33° C | 81% | 1009.3 hPa | 0.51 mm | - | 0 W/m² | - |
| 1777882634 | 13.33° C | 80% | 1009 hPa | 0.51 mm | - | 0 W/m² | - |
| 1777881734 | 13.33° C | 81% | 1009 hPa | 0.25 mm | - | 0 W/m² | - |
| 1777880835 | 13.89° C | 76% | 1009 hPa | 0 mm | - | 0 W/m² | - |
| 1777879934 | 15° C | 69% | 1008.7 hPa | 0 mm | - | 2 W/m² | - |
| 1777879034 | 15.56° C | 66% | 1008.7 hPa | 0 mm | - | 7 W/m² | - |
| 1777878134 | 15.56° C | 65% | 1008.7 hPa | 0 mm | - | 9 W/m² | - |
| 1777877234 | 16.11° C | 63% | 1008.7 hPa | 0 mm | - | 22 W/m² | - |
| 1777876334 | 16.11° C | 63% | 1008.3 hPa | 0 mm | - | 20 W/m² | - |
| 1777875434 | 16.11° C | 62% | 1008 hPa | 0 mm | - | 95 W/m² | - |
* Rain latest hour (hover to see other rain measurements)
** Current wind speed in m/s (hover to see current wind gust speed)